createdAt,value
2018-11-20T08:23:14.779Z,68.50
2018-11-20T08:26:04.741Z,68.70
2018-11-20T08:29:03.771Z,67.90
2018-11-20T08:32:05.572Z,68.40
2018-11-20T08:34:50.581Z,68.10
2018-11-20T08:37:35.825Z,68.10
2018-11-20T08:40:40.707Z,68.20
2018-11-20T08:43:30.279Z,67.00
2018-11-20T08:46:15.693Z,67.70
2018-11-20T08:49:11.127Z,67.60
2018-11-20T08:52:08.429Z,67.80
2018-11-20T08:55:10.262Z,67.50
2018-11-20T08:57:55.814Z,67.60
2018-11-20T09:00:39.844Z,67.70
2018-11-20T09:03:27.815Z,67.60
2018-11-20T09:06:12.998Z,68.00
2018-11-20T09:08:59.823Z,67.80
2018-11-20T09:11:46.589Z,68.50
2018-11-20T09:14:51.548Z,68.20
2018-11-20T09:17:53.252Z,67.70
2018-11-20T09:20:40.033Z,67.60
2018-11-20T09:23:35.624Z,67.20
2018-11-20T09:26:18.275Z,67.60
2018-11-20T09:29:23.175Z,67.80
2018-11-20T09:32:07.347Z,67.60
2018-11-20T09:34:54.134Z,67.50
2018-11-20T09:37:43.775Z,67.60
2018-11-20T09:41:07.379Z,67.80
2018-11-20T09:43:57.209Z,67.80
2018-11-20T09:46:58.790Z,67.30
2018-11-20T09:49:57.589Z,66.60
2018-11-20T09:52:42.892Z,65.80
2018-11-20T09:55:30.311Z,65.70
2018-11-20T09:58:32.121Z,65.70
2018-11-20T10:01:12.846Z,65.80
2018-11-20T10:04:02.419Z,65.70
2018-11-20T10:06:55.263Z,66.30
2018-11-20T10:09:47.583Z,66.30
2018-11-20T10:12:40.095Z,65.30
2018-11-20T10:15:32.793Z,65.80
2018-11-20T10:18:31.610Z,64.20
2018-11-20T10:21:16.951Z,64.70
2018-11-20T10:24:21.551Z,64.70
2018-11-20T10:27:06.723Z,65.40
2018-11-20T10:32:56.657Z,63.90
2018-11-20T10:35:42.058Z,64.60
2018-11-20T10:38:31.480Z,64.80
2018-11-20T10:41:13.858Z,64.30
2018-11-20T10:43:59.435Z,64.30
2018-11-20T10:46:46.265Z,63.90
2018-11-20T10:52:12.611Z,64.40
2018-11-20T10:54:59.343Z,65.00
2018-11-20T10:58:01.119Z,65.60
2018-11-20T11:00:46.650Z,64.80
2018-11-20T11:03:32.625Z,64.50
2018-11-20T11:06:17.921Z,63.90
2018-11-20T11:09:05.485Z,63.90
2018-11-20T11:11:52.167Z,63.20
2018-11-20T11:14:53.985Z,63.00
2018-11-20T11:17:39.206Z,61.50
2018-11-20T11:20:32.525Z,61.90
2018-11-20T11:23:34.135Z,62.30
2018-11-20T11:26:17.491Z,63.00
2018-11-20T11:29:22.578Z,61.90
2018-11-20T11:32:15.564Z,62.60
2018-11-20T11:35:03.602Z,62.80
2018-11-20T11:38:02.628Z,62.90
2018-11-20T11:41:07.502Z,61.70
2018-11-20T11:44:03.218Z,60.50
2018-11-20T11:46:52.627Z,60.10
2018-11-20T11:49:54.704Z,60.00
2018-11-20T11:52:44.335Z,58.70
2018-11-20T11:55:34.009Z,58.50
2018-11-20T11:58:10.733Z,58.60
2018-11-20T12:00:58.494Z,58.60
2018-11-20T12:03:48.114Z,59.40
2018-11-20T12:06:37.846Z,59.60
2018-11-20T12:09:27.289Z,59.90
2018-11-20T12:12:17.116Z,61.00
2018-11-20T12:15:07.272Z,59.50
2018-11-20T12:17:52.348Z,60.10
2018-11-20T12:20:29.843Z,59.40
2018-11-20T12:23:15.226Z,59.40
2018-11-20T12:26:04.636Z,58.40
2018-11-20T12:28:51.110Z,57.70
2018-11-20T12:31:38.004Z,57.70
2018-11-20T12:34:40.136Z,58.30
2018-11-20T12:37:29.754Z,57.90
2018-11-20T12:40:12.403Z,56.90
2018-11-20T12:43:02.235Z,56.90
2018-11-20T12:45:55.822Z,57.50
2018-11-20T12:48:40.460Z,57.80
2018-11-20T12:51:21.525Z,57.90
2018-11-20T12:54:01.237Z,58.50
2018-11-20T12:56:48.040Z,58.10
2018-11-20T12:59:34.281Z,57.40
2018-11-20T13:02:31.838Z,57.00
2018-11-20T13:05:17.316Z,56.70
2018-11-20T13:08:06.795Z,57.00
2018-11-20T13:10:53.550Z,57.50
2018-11-20T13:13:50.214Z,57.70
2018-11-20T13:16:37.896Z,57.50
2018-11-20T13:19:25.470Z,57.60
2018-11-20T13:22:26.638Z,58.10
2018-11-20T13:25:25.212Z,58.00
2018-11-20T13:28:08.002Z,58.30
2018-11-20T13:30:53.767Z,58.30
2018-11-20T13:33:55.506Z,58.30
2018-11-20T13:36:40.844Z,58.80
2018-11-20T13:39:40.536Z,58.80
2018-11-20T13:42:31.905Z,59.30
2018-11-20T13:45:36.748Z,59.40
2018-11-20T13:48:22.400Z,59.40
2018-11-20T13:51:11.998Z,60.00
2018-11-20T13:54:04.699Z,60.10
2018-11-20T13:56:50.124Z,60.80
2018-11-20T13:59:35.458Z,61.40
2018-11-20T14:02:13.788Z,62.00
2018-11-20T14:05:00.720Z,62.60
2018-11-20T14:07:46.700Z,62.80
2018-11-20T14:10:32.528Z,62.90
2018-11-20T14:13:17.742Z,63.50
2018-11-20T14:16:02.864Z,63.80
2018-11-20T14:18:40.984Z,63.90
2018-11-20T14:21:45.887Z,64.40
2018-11-20T14:24:25.878Z,64.90
2018-11-20T14:27:11.286Z,65.20
2018-11-20T14:29:57.547Z,65.60
2018-11-20T14:32:43.110Z,66.00
2018-11-20T14:35:32.047Z,66.50
2018-11-20T14:38:17.342Z,66.70
2018-11-20T14:41:04.499Z,67.10
2018-11-20T14:44:07.191Z,67.50
2018-11-20T14:46:52.520Z,67.60
2018-11-20T14:49:41.061Z,67.90
2018-11-20T14:52:20.366Z,68.00
2018-11-20T14:55:05.892Z,68.50
2018-11-20T14:57:52.738Z,68.40
2018-11-20T15:00:39.536Z,69.00
2018-11-20T15:03:24.895Z,69.00
2018-11-20T15:06:10.412Z,69.20
2018-11-20T15:08:57.235Z,69.40
2018-11-20T15:11:49.908Z,69.60
2018-11-20T15:14:28.798Z,69.50
2018-11-20T15:17:18.521Z,70.00
2018-11-20T15:20:04.165Z,70.00
2018-11-20T15:22:49.628Z,69.90
2018-11-20T15:25:51.388Z,70.10
2018-11-20T15:28:53.030Z,70.20
2018-11-20T15:31:45.899Z,70.70
2018-11-20T15:34:27.972Z,70.80
2018-11-20T15:37:08.016Z,70.80
2018-11-20T15:39:54.788Z,70.70
2018-11-20T15:42:36.284Z,71.10
2018-11-20T15:45:23.106Z,71.30
2018-11-20T15:48:05.262Z,71.40
2018-11-20T15:50:50.277Z,71.70
2018-11-20T15:53:35.451Z,71.80
2018-11-20T15:56:28.029Z,72.10
2018-11-20T15:59:32.916Z,72.10
2018-11-20T16:02:25.584Z,72.70
2018-11-20T16:05:24.597Z,72.80
2018-11-20T16:08:00.024Z,73.20
2018-11-20T16:10:52.928Z,73.30
2018-11-20T16:13:54.759Z,73.20
2018-11-20T16:16:40.142Z,73.50
2018-11-20T16:19:21.313Z,73.80
2018-11-20T16:22:08.256Z,74.00
2018-11-20T16:25:00.931Z,74.00
2018-11-20T16:27:56.683Z,74.20
2018-11-20T16:30:43.449Z,74.40
2018-11-20T16:33:36.162Z,74.60
2018-11-20T16:36:31.682Z,75.00
2018-11-20T16:39:27.484Z,75.20
2018-11-20T16:42:15.953Z,75.20
2018-11-20T16:45:20.771Z,74.60
2018-11-20T16:48:36.158Z,74.70
2018-11-20T16:51:21.164Z,75.10
2018-11-20T16:54:11.555Z,75.10
2018-11-20T16:56:59.350Z,75.10
2018-11-20T16:59:54.866Z,75.70
2018-11-20T17:02:41.691Z,76.10
2018-11-20T17:05:34.290Z,75.70
2018-11-20T17:08:27.963Z,76.30
2018-11-20T17:11:13.300Z,76.60
2018-11-20T17:14:02.827Z,76.70
2018-11-20T17:16:43.511Z,76.80
2018-11-20T17:19:30.349Z,77.00
2018-11-20T17:22:17.139Z,77.00
2018-11-20T17:25:06.846Z,77.50
2018-11-20T17:34:23.584Z,77.70
2018-11-20T17:37:16.418Z,78.30
2018-11-20T17:39:53.983Z,78.10
2018-11-20T17:42:39.406Z,78.40
2018-11-20T17:45:36.398Z,78.60
2018-11-20T17:48:28.464Z,78.70
2018-11-20T17:51:27.402Z,79.10
2018-11-20T17:54:14.233Z,78.40
2018-11-20T17:57:13.048Z,78.50
2018-11-20T17:59:58.064Z,78.50
2018-11-20T18:02:51.234Z,78.50
2018-11-20T18:05:41.162Z,79.20
2018-11-20T18:08:37.070Z,79.20
2018-11-20T18:11:27.104Z,79.40
2018-11-20T18:14:13.916Z,79.30
2018-11-20T18:16:56.325Z,78.90
2018-11-20T18:19:46.082Z,78.90
2018-11-20T18:22:31.626Z,79.00
2018-11-20T18:25:17.269Z,79.10
2018-11-20T18:28:01.504Z,79.00
2018-11-20T18:31:03.402Z,78.70
2018-11-20T18:33:53.137Z,79.20
2018-11-20T18:36:42.922Z,79.50
2018-11-20T18:39:47.833Z,78.90
2018-11-20T18:42:34.583Z,78.70
2018-11-20T18:45:19.964Z,79.10
2018-11-20T18:48:15.554Z,79.50
2018-11-20T18:51:01.217Z,79.50
2018-11-20T18:53:36.854Z,79.50
2018-11-20T18:56:24.069Z,79.70
2018-11-20T18:59:09.338Z,79.80
2018-11-20T19:02:02.098Z,79.50
2018-11-20T19:04:39.664Z,79.80
2018-11-20T19:07:26.485Z,79.10
2018-11-20T19:10:23.346Z,79.10
2018-11-20T19:13:09.922Z,79.30
2018-11-20T19:15:58.106Z,79.70
2018-11-20T19:18:43.342Z,79.80
2018-11-20T19:21:35.817Z,79.80
2018-11-20T19:24:27.296Z,79.30
2018-11-20T19:27:12.827Z,79.30
2018-11-20T19:30:12.128Z,79.60
